sensor_id;sensor_type;location;lat;lon;timestamp;P1;durP1;ratioP1;P2;durP2;ratioP2
61905;SDS011;47863;55.766;37.672;2023-04-25T00:00:26;8.60;;;3.60;;
61905;SDS011;47863;55.766;37.672;2023-04-25T00:02:52;5.75;;;3.20;;
61905;SDS011;47863;55.766;37.672;2023-04-25T00:05:17;7.30;;;3.53;;
61905;SDS011;47863;55.766;37.672;2023-04-25T00:07:44;6.90;;;3.97;;
61905;SDS011;47863;55.766;37.672;2023-04-25T00:10:11;7.05;;;3.47;;
61905;SDS011;47863;55.766;37.672;2023-04-25T00:12:37;7.45;;;3.72;;
61905;SDS011;47863;55.766;37.672;2023-04-25T00:15:03;6.90;;;3.40;;
61905;SDS011;47863;55.766;37.672;2023-04-25T00:17:32;7.18;;;3.63;;
61905;SDS011;47863;55.766;37.672;2023-04-25T00:19:57;9.60;;;3.88;;
61905;SDS011;47863;55.766;37.672;2023-04-25T00:22:23;7.03;;;3.25;;
61905;SDS011;47863;55.766;37.672;2023-04-25T00:24:49;10.25;;;4.43;;
61905;SDS011;47863;55.766;37.672;2023-04-25T00:27:15;6.80;;;3.85;;
61905;SDS011;47863;55.766;37.672;2023-04-25T00:29:41;8.10;;;4.63;;
61905;SDS011;47863;55.766;37.672;2023-04-25T00:32:06;10.40;;;4.68;;
61905;SDS011;47863;55.766;37.672;2023-04-25T00:34:32;9.23;;;3.97;;
61905;SDS011;47863;55.766;37.672;2023-04-25T00:36:57;8.95;;;4.18;;
61905;SDS011;47863;55.766;37.672;2023-04-25T00:39:23;8.73;;;4.10;;
61905;SDS011;47863;55.766;37.672;2023-04-25T00:41:49;7.30;;;3.63;;
61905;SDS011;47863;55.766;37.672;2023-04-25T00:44:18;9.27;;;4.30;;
61905;SDS011;47863;55.766;37.672;2023-04-25T00:46:44;11.18;;;5.05;;
61905;SDS011;47863;55.766;37.672;2023-04-25T00:49:11;7.15;;;3.95;;
61905;SDS011;47863;55.766;37.672;2023-04-25T00:51:40;9.27;;;4.40;;
61905;SDS011;47863;55.766;37.672;2023-04-25T00:54:06;7.80;;;4.30;;
61905;SDS011;47863;55.766;37.672;2023-04-25T00:56:32;8.50;;;4.25;;
61905;SDS011;47863;55.766;37.672;2023-04-25T00:58:58;6.47;;;3.22;;
61905;SDS011;47863;55.766;37.672;2023-04-25T01:01:24;10.75;;;4.88;;
61905;SDS011;47863;55.766;37.672;2023-04-25T01:03:49;9.07;;;5.30;;
61905;SDS011;47863;55.766;37.672;2023-04-25T01:06:16;8.45;;;4.32;;
61905;SDS011;47863;55.766;37.672;2023-04-25T01:08:42;6.65;;;3.88;;
61905;SDS011;47863;55.766;37.672;2023-04-25T01:11:07;7.10;;;4.00;;
61905;SDS011;47863;55.766;37.672;2023-04-25T01:13:33;8.98;;;4.18;;
61905;SDS011;47863;55.766;37.672;2023-04-25T01:16:00;7.97;;;4.00;;
61905;SDS011;47863;55.766;37.672;2023-04-25T01:18:26;7.28;;;4.82;;
61905;SDS011;47863;55.766;37.672;2023-04-25T01:20:52;7.50;;;4.30;;
61905;SDS011;47863;55.766;37.672;2023-04-25T01:23:21;6.18;;;3.80;;
61905;SDS011;47863;55.766;37.672;2023-04-25T01:25:48;8.82;;;4.35;;
61905;SDS011;47863;55.766;37.672;2023-04-25T01:28:15;10.18;;;4.13;;
61905;SDS011;47863;55.766;37.672;2023-04-25T01:30:41;7.55;;;4.18;;
61905;SDS011;47863;55.766;37.672;2023-04-25T01:33:08;6.90;;;4.10;;
61905;SDS011;47863;55.766;37.672;2023-04-25T01:35:34;7.97;;;4.03;;
61905;SDS011;47863;55.766;37.672;2023-04-25T01:37:59;6.55;;;3.35;;
61905;SDS011;47863;55.766;37.672;2023-04-25T01:40:26;10.82;;;3.90;;
61905;SDS011;47863;55.766;37.672;2023-04-25T01:42:53;5.85;;;3.63;;
61905;SDS011;47863;55.766;37.672;2023-04-25T01:45:19;10.18;;;4.88;;
61905;SDS011;47863;55.766;37.672;2023-04-25T01:47:45;7.80;;;3.83;;
61905;SDS011;47863;55.766;37.672;2023-04-25T01:50:16;6.00;;;3.78;;
61905;SDS011;47863;55.766;37.672;2023-04-25T01:52:43;6.60;;;4.28;;
61905;SDS011;47863;55.766;37.672;2023-04-25T01:55:09;8.75;;;4.32;;
61905;SDS011;47863;55.766;37.672;2023-04-25T01:57:35;7.18;;;3.88;;
61905;SDS011;47863;55.766;37.672;2023-04-25T02:00:02;5.70;;;3.65;;
61905;SDS011;47863;55.766;37.672;2023-04-25T02:04:57;8.00;;;4.35;;
61905;SDS011;47863;55.766;37.672;2023-04-25T02:07:23;6.72;;;3.80;;
61905;SDS011;47863;55.766;37.672;2023-04-25T02:09:49;6.85;;;3.45;;
61905;SDS011;47863;55.766;37.672;2023-04-25T02:12:14;7.72;;;3.70;;
61905;SDS011;47863;55.766;37.672;2023-04-25T02:14:40;6.75;;;3.75;;
61905;SDS011;47863;55.766;37.672;2023-04-25T02:17:06;6.90;;;3.80;;
61905;SDS011;47863;55.766;37.672;2023-04-25T02:19:32;8.45;;;4.43;;
61905;SDS011;47863;55.766;37.672;2023-04-25T02:21:57;7.53;;;3.80;;
61905;SDS011;47863;55.766;37.672;2023-04-25T02:24:23;6.65;;;4.28;;
61905;SDS011;47863;55.766;37.672;2023-04-25T02:26:49;8.70;;;3.83;;
61905;SDS011;47863;55.766;37.672;2023-04-25T02:29:14;7.45;;;3.97;;
61905;SDS011;47863;55.766;37.672;2023-04-25T02:31:40;7.32;;;4.15;;
61905;SDS011;47863;55.766;37.672;2023-04-25T02:34:06;8.27;;;3.70;;
61905;SDS011;47863;55.766;37.672;2023-04-25T02:36:32;6.65;;;3.50;;
61905;SDS011;47863;55.766;37.672;2023-04-25T02:39:00;5.53;;;3.92;;
61905;SDS011;47863;55.766;37.672;2023-04-25T02:41:26;7.40;;;4.07;;
61905;SDS011;47863;55.766;37.672;2023-04-25T02:43:52;9.27;;;3.72;;
61905;SDS011;47863;55.766;37.672;2023-04-25T02:46:17;6.20;;;3.28;;
61905;SDS011;47863;55.766;37.672;2023-04-25T02:48:43;6.60;;;4.00;;
61905;SDS011;47863;55.766;37.672;2023-04-25T02:51:09;6.45;;;3.20;;
61905;SDS011;47863;55.766;37.672;2023-04-25T02:53:34;9.18;;;4.25;;
61905;SDS011;47863;55.766;37.672;2023-04-25T02:56:00;5.93;;;3.35;;
61905;SDS011;47863;55.766;37.672;2023-04-25T02:58:26;6.60;;;3.83;;
61905;SDS011;47863;55.766;37.672;2023-04-25T03:00:52;8.18;;;3.58;;
61905;SDS011;47863;55.766;37.672;2023-04-25T03:03:18;9.23;;;5.03;;
61905;SDS011;47863;55.766;37.672;2023-04-25T03:05:47;6.28;;;3.65;;
61905;SDS011;47863;55.766;37.672;2023-04-25T03:08:16;10.05;;;4.20;;
61905;SDS011;47863;55.766;37.672;2023-04-25T03:10:43;6.70;;;3.85;;
61905;SDS011;47863;55.766;37.672;2023-04-25T03:13:09;5.13;;;3.45;;
61905;SDS011;47863;55.766;37.672;2023-04-25T03:15:35;5.68;;;3.65;;
61905;SDS011;47863;55.766;37.672;2023-04-25T03:18:01;7.10;;;3.80;;
61905;SDS011;47863;55.766;37.672;2023-04-25T03:20:27;6.82;;;3.70;;
61905;SDS011;47863;55.766;37.672;2023-04-25T03:22:52;6.93;;;4.10;;
61905;SDS011;47863;55.766;37.672;2023-04-25T03:25:18;6.57;;;4.13;;
61905;SDS011;47863;55.766;37.672;2023-04-25T03:27:45;6.35;;;4.00;;
61905;SDS011;47863;55.766;37.672;2023-04-25T03:30:11;7.18;;;3.95;;
61905;SDS011;47863;55.766;37.672;2023-04-25T03:32:37;8.38;;;4.60;;
61905;SDS011;47863;55.766;37.672;2023-04-25T03:35:03;8.15;;;4.07;;
61905;SDS011;47863;55.766;37.672;2023-04-25T03:37:31;6.85;;;3.90;;
61905;SDS011;47863;55.766;37.672;2023-04-25T03:39:57;10.82;;;4.30;;
61905;SDS011;47863;55.766;37.672;2023-04-25T03:42:22;8.90;;;3.83;;
61905;SDS011;47863;55.766;37.672;2023-04-25T03:44:48;8.10;;;5.15;;
61905;SDS011;47863;55.766;37.672;2023-04-25T03:47:15;8.55;;;4.43;;
61905;SDS011;47863;55.766;37.672;2023-04-25T03:49:41;7.15;;;4.95;;
61905;SDS011;47863;55.766;37.672;2023-04-25T03:52:06;8.27;;;4.78;;
61905;SDS011;47863;55.766;37.672;2023-04-25T03:54:32;9.05;;;5.50;;
61905;SDS011;47863;55.766;37.672;2023-04-25T03:56:58;8.70;;;4.97;;
61905;SDS011;47863;55.766;37.672;2023-04-25T03:59:24;10.10;;;5.50;;
61905;SDS011;47863;55.766;37.672;2023-04-25T04:01:51;8.55;;;5.30;;
61905;SDS011;47863;55.766;37.672;2023-04-25T04:04:17;9.43;;;5.00;;
61905;SDS011;47863;55.766;37.672;2023-04-25T04:06:43;13.60;;;5.13;;
61905;SDS011;47863;55.766;37.672;2023-04-25T04:09:09;9.00;;;4.60;;
61905;SDS011;47863;55.766;37.672;2023-04-25T04:11:36;9.05;;;5.28;;
61905;SDS011;47863;55.766;37.672;2023-04-25T04:14:04;10.30;;;6.95;;
61905;SDS011;47863;55.766;37.672;2023-04-25T04:16:31;10.75;;;6.28;;
61905;SDS011;47863;55.766;37.672;2023-04-25T04:18:56;12.90;;;5.20;;
61905;SDS011;47863;55.766;37.672;2023-04-25T04:21:22;9.25;;;6.53;;
61905;SDS011;47863;55.766;37.672;2023-04-25T04:23:48;9.85;;;5.07;;
61905;SDS011;47863;55.766;37.672;2023-04-25T04:26:13;9.38;;;5.25;;
61905;SDS011;47863;55.766;37.672;2023-04-25T04:28:42;7.53;;;4.88;;
61905;SDS011;47863;55.766;37.672;2023-04-25T04:31:09;10.57;;;6.13;;
61905;SDS011;47863;55.766;37.672;2023-04-25T04:33:35;8.05;;;5.50;;
61905;SDS011;47863;55.766;37.672;2023-04-25T04:36:02;9.80;;;5.22;;
61905;SDS011;47863;55.766;37.672;2023-04-25T04:38:29;11.93;;;5.75;;
61905;SDS011;47863;55.766;37.672;2023-04-25T04:40:55;11.07;;;6.22;;
61905;SDS011;47863;55.766;37.672;2023-04-25T04:43:21;10.73;;;6.05;;
61905;SDS011;47863;55.766;37.672;2023-04-25T04:45:48;10.30;;;6.72;;
61905;SDS011;47863;55.766;37.672;2023-04-25T04:48:15;13.48;;;5.45;;
61905;SDS011;47863;55.766;37.672;2023-04-25T04:50:44;13.68;;;7.65;;
61905;SDS011;47863;55.766;37.672;2023-04-25T04:53:13;11.55;;;7.38;;
61905;SDS011;47863;55.766;37.672;2023-04-25T04:55:38;12.60;;;6.90;;
61905;SDS011;47863;55.766;37.672;2023-04-25T04:58:06;7.75;;;5.63;;
61905;SDS011;47863;55.766;37.672;2023-04-25T05:00:32;9.75;;;5.22;;
61905;SDS011;47863;55.766;37.672;2023-04-25T05:02:58;7.88;;;3.90;;
61905;SDS011;47863;55.766;37.672;2023-04-25T05:05:24;7.90;;;4.75;;
61905;SDS011;47863;55.766;37.672;2023-04-25T05:07:49;8.05;;;5.35;;
61905;SDS011;47863;55.766;37.672;2023-04-25T05:10:16;12.88;;;6.25;;
61905;SDS011;47863;55.766;37.672;2023-04-25T05:12:42;9.88;;;5.63;;
61905;SDS011;47863;55.766;37.672;2023-04-25T05:15:08;14.18;;;6.15;;
61905;SDS011;47863;55.766;37.672;2023-04-25T05:17:34;10.48;;;4.70;;
61905;SDS011;47863;55.766;37.672;2023-04-25T05:19:59;8.50;;;4.95;;
61905;SDS011;47863;55.766;37.672;2023-04-25T05:22:25;10.55;;;4.70;;
61905;SDS011;47863;55.766;37.672;2023-04-25T05:24:51;6.95;;;4.03;;
61905;SDS011;47863;55.766;37.672;2023-04-25T05:27:17;6.80;;;4.72;;
61905;SDS011;47863;55.766;37.672;2023-04-25T05:29:44;10.57;;;5.82;;
61905;SDS011;47863;55.766;37.672;2023-04-25T05:32:10;7.18;;;4.50;;
61905;SDS011;47863;55.766;37.672;2023-04-25T05:34:36;8.48;;;4.75;;
61905;SDS011;47863;55.766;37.672;2023-04-25T05:37:02;10.38;;;5.25;;
61905;SDS011;47863;55.766;37.672;2023-04-25T05:39:28;10.75;;;5.05;;
61905;SDS011;47863;55.766;37.672;2023-04-25T05:41:54;10.02;;;4.53;;
61905;SDS011;47863;55.766;37.672;2023-04-25T05:44:19;9.57;;;6.32;;
61905;SDS011;47863;55.766;37.672;2023-04-25T05:46:46;12.65;;;5.53;;
61905;SDS011;47863;55.766;37.672;2023-04-25T05:49:11;11.30;;;5.25;;
61905;SDS011;47863;55.766;37.672;2023-04-25T05:51:37;8.05;;;4.22;;
61905;SDS011;47863;55.766;37.672;2023-04-25T05:54:03;8.80;;;5.25;;
61905;SDS011;47863;55.766;37.672;2023-04-25T05:56:29;10.50;;;5.00;;
61905;SDS011;47863;55.766;37.672;2023-04-25T05:58:54;10.43;;;5.20;;
61905;SDS011;47863;55.766;37.672;2023-04-25T06:01:20;11.77;;;6.25;;
61905;SDS011;47863;55.766;37.672;2023-04-25T06:03:47;8.50;;;4.75;;
61905;SDS011;47863;55.766;37.672;2023-04-25T06:06:12;7.82;;;5.65;;
61905;SDS011;47863;55.766;37.672;2023-04-25T06:08:40;12.70;;;6.35;;
61905;SDS011;47863;55.766;37.672;2023-04-25T06:11:06;9.77;;;6.07;;
61905;SDS011;47863;55.766;37.672;2023-04-25T06:13:31;11.38;;;5.90;;
61905;SDS011;47863;55.766;37.672;2023-04-25T06:15:57;12.50;;;6.80;;
61905;SDS011;47863;55.766;37.672;2023-04-25T06:18:23;6.82;;;4.85;;
61905;SDS011;47863;55.766;37.672;2023-04-25T06:20:48;10.02;;;4.53;;
61905;SDS011;47863;55.766;37.672;2023-04-25T06:23:14;9.90;;;5.28;;
61905;SDS011;47863;55.766;37.672;2023-04-25T06:25:39;7.75;;;4.47;;
61905;SDS011;47863;55.766;37.672;2023-04-25T06:28:05;6.60;;;4.45;;
61905;SDS011;47863;55.766;37.672;2023-04-25T06:30:30;7.72;;;4.20;;
61905;SDS011;47863;55.766;37.672;2023-04-25T06:32:56;8.95;;;3.85;;
61905;SDS011;47863;55.766;37.672;2023-04-25T06:35:22;10.23;;;4.43;;
61905;SDS011;47863;55.766;37.672;2023-04-25T06:37:47;7.07;;;4.15;;
61905;SDS011;47863;55.766;37.672;2023-04-25T06:40:13;8.73;;;4.25;;
61905;SDS011;47863;55.766;37.672;2023-04-25T06:42:38;9.57;;;4.35;;
61905;SDS011;47863;55.766;37.672;2023-04-25T06:45:04;7.40;;;3.83;;
61905;SDS011;47863;55.766;37.672;2023-04-25T06:47:32;6.97;;;4.03;;
61905;SDS011;47863;55.766;37.672;2023-04-25T06:49:57;12.00;;;5.40;;
61905;SDS011;47863;55.766;37.672;2023-04-25T06:52:23;10.10;;;4.40;;
61905;SDS011;47863;55.766;37.672;2023-04-25T06:54:48;8.07;;;3.78;;
61905;SDS011;47863;55.766;37.672;2023-04-25T06:57:14;8.10;;;4.25;;
61905;SDS011;47863;55.766;37.672;2023-04-25T06:59:40;12.30;;;4.50;;
61905;SDS011;47863;55.766;37.672;2023-04-25T07:02:05;7.70;;;4.22;;
61905;SDS011;47863;55.766;37.672;2023-04-25T07:04:31;6.95;;;3.80;;
61905;SDS011;47863;55.766;37.672;2023-04-25T07:06:57;7.90;;;3.75;;
61905;SDS011;47863;55.766;37.672;2023-04-25T07:09:23;6.35;;;3.53;;
61905;SDS011;47863;55.766;37.672;2023-04-25T07:11:49;9.00;;;4.18;;
61905;SDS011;47863;55.766;37.672;2023-04-25T07:14:14;7.20;;;3.53;;
61905;SDS011;47863;55.766;37.672;2023-04-25T07:16:40;13.13;;;4.55;;
61905;SDS011;47863;55.766;37.672;2023-04-25T07:19:06;8.40;;;4.03;;
61905;SDS011;47863;55.766;37.672;2023-04-25T07:21:32;10.05;;;3.88;;
61905;SDS011;47863;55.766;37.672;2023-04-25T07:23:58;6.05;;;3.45;;
61905;SDS011;47863;55.766;37.672;2023-04-25T07:26:23;11.60;;;4.00;;
61905;SDS011;47863;55.766;37.672;2023-04-25T07:28:49;8.57;;;3.63;;
61905;SDS011;47863;55.766;37.672;2023-04-25T07:31:16;8.60;;;3.65;;
61905;SDS011;47863;55.766;37.672;2023-04-25T07:33:44;7.88;;;3.72;;
61905;SDS011;47863;55.766;37.672;2023-04-25T07:36:10;6.85;;;3.45;;
61905;SDS011;47863;55.766;37.672;2023-04-25T07:38:37;6.40;;;3.25;;
61905;SDS011;47863;55.766;37.672;2023-04-25T07:41:03;7.78;;;3.30;;
61905;SDS011;47863;55.766;37.672;2023-04-25T07:43:29;6.07;;;3.35;;
61905;SDS011;47863;55.766;37.672;2023-04-25T07:45:55;7.68;;;3.30;;
61905;SDS011;47863;55.766;37.672;2023-04-25T07:48:22;6.28;;;3.30;;
61905;SDS011;47863;55.766;37.672;2023-04-25T07:50:48;5.78;;;3.17;;
61905;SDS011;47863;55.766;37.672;2023-04-25T07:53:14;9.75;;;3.53;;
61905;SDS011;47863;55.766;37.672;2023-04-25T07:55:39;7.55;;;3.65;;
61905;SDS011;47863;55.766;37.672;2023-04-25T07:58:08;6.25;;;3.95;;
61905;SDS011;47863;55.766;37.672;2023-04-25T08:00:35;7.00;;;3.85;;
61905;SDS011;47863;55.766;37.672;2023-04-25T08:03:01;8.32;;;3.90;;
61905;SDS011;47863;55.766;37.672;2023-04-25T08:05:28;4.45;;;3.22;;
61905;SDS011;47863;55.766;37.672;2023-04-25T08:07:54;9.23;;;4.45;;
61905;SDS011;47863;55.766;37.672;2023-04-25T08:10:20;6.88;;;3.60;;
61905;SDS011;47863;55.766;37.672;2023-04-25T08:12:47;8.95;;;4.30;;
61905;SDS011;47863;55.766;37.672;2023-04-25T08:15:13;6.75;;;3.67;;
61905;SDS011;47863;55.766;37.672;2023-04-25T08:17:39;9.98;;;3.45;;
61905;SDS011;47863;55.766;37.672;2023-04-25T08:20:04;6.07;;;2.97;;
61905;SDS011;47863;55.766;37.672;2023-04-25T08:22:31;8.27;;;3.38;;
61905;SDS011;47863;55.766;37.672;2023-04-25T08:24:56;7.32;;;3.13;;
61905;SDS011;47863;55.766;37.672;2023-04-25T08:27:22;5.03;;;2.90;;
61905;SDS011;47863;55.766;37.672;2023-04-25T08:29:48;4.00;;;2.70;;
61905;SDS011;47863;55.766;37.672;2023-04-25T08:32:15;4.65;;;2.67;;
61905;SDS011;47863;55.766;37.672;2023-04-25T08:34:41;4.78;;;2.47;;
61905;SDS011;47863;55.766;37.672;2023-04-25T08:37:08;6.45;;;2.97;;
61905;SDS011;47863;55.766;37.672;2023-04-25T08:39:35;5.88;;;2.92;;
61905;SDS011;47863;55.766;37.672;2023-04-25T08:42:02;5.95;;;2.60;;
61905;SDS011;47863;55.766;37.672;2023-04-25T08:44:36;4.85;;;2.63;;
61905;SDS011;47863;55.766;37.672;2023-04-25T08:47:05;7.82;;;2.60;;
61905;SDS011;47863;55.766;37.672;2023-04-25T08:49:33;5.47;;;2.10;;
61905;SDS011;47863;55.766;37.672;2023-04-25T08:52:00;6.32;;;2.97;;
61905;SDS011;47863;55.766;37.672;2023-04-25T08:54:28;7.05;;;4.90;;
61905;SDS011;47863;55.766;37.672;2023-04-25T08:56:56;5.63;;;3.00;;
61905;SDS011;47863;55.766;37.672;2023-04-25T08:59:27;7.07;;;3.10;;
61905;SDS011;47863;55.766;37.672;2023-04-25T09:01:53;5.18;;;2.97;;
61905;SDS011;47863;55.766;37.672;2023-04-25T09:04:20;5.13;;;2.88;;
61905;SDS011;47863;55.766;37.672;2023-04-25T09:06:46;4.90;;;2.85;;
61905;SDS011;47863;55.766;37.672;2023-04-25T09:09:12;4.85;;;2.55;;
61905;SDS011;47863;55.766;37.672;2023-04-25T09:11:38;6.22;;;2.83;;
61905;SDS011;47863;55.766;37.672;2023-04-25T09:19:25;4.75;;;3.00;;
61905;SDS011;47863;55.766;37.672;2023-04-25T09:21:56;5.18;;;2.95;;
61905;SDS011;47863;55.766;37.672;2023-04-25T09:24:45;6.65;;;3.15;;
61905;SDS011;47863;55.766;37.672;2023-04-25T09:27:20;5.15;;;3.20;;
61905;SDS011;47863;55.766;37.672;2023-04-25T09:29:56;5.32;;;3.10;;
61905;SDS011;47863;55.766;37.672;2023-04-25T09:32:24;8.45;;;3.60;;
61905;SDS011;47863;55.766;37.672;2023-04-25T09:34:51;10.32;;;7.97;;
61905;SDS011;47863;55.766;37.672;2023-04-25T09:37:21;7.65;;;4.53;;
61905;SDS011;47863;55.766;37.672;2023-04-25T09:39:49;7.93;;;4.82;;
61905;SDS011;47863;55.766;37.672;2023-04-25T09:42:16;7.80;;;3.80;;
61905;SDS011;47863;55.766;37.672;2023-04-25T09:44:45;6.03;;;3.65;;
61905;SDS011;47863;55.766;37.672;2023-04-25T09:47:12;5.80;;;3.60;;
61905;SDS011;47863;55.766;37.672;2023-04-25T09:49:41;6.68;;;4.00;;
61905;SDS011;47863;55.766;37.672;2023-04-25T09:52:07;7.13;;;4.07;;
61905;SDS011;47863;55.766;37.672;2023-04-25T09:54:33;6.60;;;3.80;;
61905;SDS011;47863;55.766;37.672;2023-04-25T09:57:07;6.25;;;3.67;;
61905;SDS011;47863;55.766;37.672;2023-04-25T09:59:47;5.32;;;3.90;;
61905;SDS011;47863;55.766;37.672;2023-04-25T10:02:15;6.88;;;3.72;;
61905;SDS011;47863;55.766;37.672;2023-04-25T10:04:44;7.13;;;4.05;;
61905;SDS011;47863;55.766;37.672;2023-04-25T10:07:14;7.07;;;4.05;;
61905;SDS011;47863;55.766;37.672;2023-04-25T10:09:40;6.53;;;3.90;;
61905;SDS011;47863;55.766;37.672;2023-04-25T10:12:08;7.90;;;3.88;;
61905;SDS011;47863;55.766;37.672;2023-04-25T10:14:34;7.70;;;3.63;;
61905;SDS011;47863;55.766;37.672;2023-04-25T10:17:00;4.97;;;3.38;;
61905;SDS011;47863;55.766;37.672;2023-04-25T10:19:26;6.63;;;3.75;;
61905;SDS011;47863;55.766;37.672;2023-04-25T10:21:55;4.47;;;3.05;;
61905;SDS011;47863;55.766;37.672;2023-04-25T10:24:28;7.85;;;3.08;;
61905;SDS011;47863;55.766;37.672;2023-04-25T10:26:55;4.47;;;2.60;;
61905;SDS011;47863;55.766;37.672;2023-04-25T10:29:22;7.75;;;2.65;;
61905;SDS011;47863;55.766;37.672;2023-04-25T10:31:49;4.43;;;2.35;;
61905;SDS011;47863;55.766;37.672;2023-04-25T10:34:15;3.20;;;2.08;;
61905;SDS011;47863;55.766;37.672;2023-04-25T10:36:42;5.63;;;2.00;;
61905;SDS011;47863;55.766;37.672;2023-04-25T10:39:08;4.35;;;2.30;;
61905;SDS011;47863;55.766;37.672;2023-04-25T10:41:45;4.57;;;2.40;;
61905;SDS011;47863;55.766;37.672;2023-04-25T10:44:27;3.03;;;1.70;;
61905;SDS011;47863;55.766;37.672;2023-04-25T10:46:56;3.28;;;1.88;;
61905;SDS011;47863;55.766;37.672;2023-04-25T10:49:30;4.50;;;2.30;;
61905;SDS011;47863;55.766;37.672;2023-04-25T10:54:53;4.05;;;1.95;;
61905;SDS011;47863;55.766;37.672;2023-04-25T10:57:40;4.05;;;2.08;;
61905;SDS011;47863;55.766;37.672;2023-04-25T11:02:42;4.03;;;2.00;;
61905;SDS011;47863;55.766;37.672;2023-04-25T11:05:08;4.75;;;1.92;;
61905;SDS011;47863;55.766;37.672;2023-04-25T11:07:45;2.70;;;1.58;;
61905;SDS011;47863;55.766;37.672;2023-04-25T11:10:14;3.08;;;2.10;;
61905;SDS011;47863;55.766;37.672;2023-04-25T11:12:39;5.22;;;2.20;;
61905;SDS011;47863;55.766;37.672;2023-04-25T11:15:06;4.78;;;2.45;;
61905;SDS011;47863;55.766;37.672;2023-04-25T11:17:33;4.75;;;2.13;;
61905;SDS011;47863;55.766;37.672;2023-04-25T11:19:59;3.85;;;2.10;;
61905;SDS011;47863;55.766;37.672;2023-04-25T11:22:26;3.70;;;1.75;;
61905;SDS011;47863;55.766;37.672;2023-04-25T11:24:52;6.05;;;2.30;;
61905;SDS011;47863;55.766;37.672;2023-04-25T11:27:18;4.70;;;2.35;;
61905;SDS011;47863;55.766;37.672;2023-04-25T11:29:44;5.25;;;2.00;;
61905;SDS011;47863;55.766;37.672;2023-04-25T11:32:13;3.17;;;1.70;;
61905;SDS011;47863;55.766;37.672;2023-04-25T11:34:42;4.03;;;1.70;;
61905;SDS011;47863;55.766;37.672;2023-04-25T11:37:08;3.65;;;1.77;;
61905;SDS011;47863;55.766;37.672;2023-04-25T11:39:36;4.57;;;2.10;;
61905;SDS011;47863;55.766;37.672;2023-04-25T11:42:01;4.07;;;1.90;;
61905;SDS011;47863;55.766;37.672;2023-04-25T11:44:29;3.15;;;1.92;;
61905;SDS011;47863;55.766;37.672;2023-04-25T11:46:55;3.20;;;1.90;;
61905;SDS011;47863;55.766;37.672;2023-04-25T11:49:20;2.75;;;1.73;;
61905;SDS011;47863;55.766;37.672;2023-04-25T11:51:47;4.25;;;1.50;;
61905;SDS011;47863;55.766;37.672;2023-04-25T11:54:13;5.95;;;1.80;;
61905;SDS011;47863;55.766;37.672;2023-04-25T11:56:44;5.03;;;2.00;;
61905;SDS011;47863;55.766;37.672;2023-04-25T11:59:10;4.40;;;2.00;;
61905;SDS011;47863;55.766;37.672;2023-04-25T12:01:37;4.88;;;2.30;;
61905;SDS011;47863;55.766;37.672;2023-04-25T12:06:47;4.97;;;1.98;;
61905;SDS011;47863;55.766;37.672;2023-04-25T12:09:14;5.75;;;2.03;;
61905;SDS011;47863;55.766;37.672;2023-04-25T12:11:52;5.38;;;2.25;;
61905;SDS011;47863;55.766;37.672;2023-04-25T12:14:25;5.60;;;2.05;;
61905;SDS011;47863;55.766;37.672;2023-04-25T12:16:56;4.88;;;1.85;;
61905;SDS011;47863;55.766;37.672;2023-04-25T12:19:24;3.33;;;1.80;;
61905;SDS011;47863;55.766;37.672;2023-04-25T12:21:50;4.07;;;2.10;;
61905;SDS011;47863;55.766;37.672;2023-04-25T12:24:22;3.58;;;2.03;;
61905;SDS011;47863;55.766;37.672;2023-04-25T12:26:52;2.83;;;1.58;;
61905;SDS011;47863;55.766;37.672;2023-04-25T12:29:26;4.20;;;2.05;;
61905;SDS011;47863;55.766;37.672;2023-04-25T12:31:54;13.63;;;2.40;;
61905;SDS011;47863;55.766;37.672;2023-04-25T12:34:20;4.82;;;2.20;;
61905;SDS011;47863;55.766;37.672;2023-04-25T12:36:47;3.72;;;2.00;;
61905;SDS011;47863;55.766;37.672;2023-04-25T12:39:23;4.43;;;2.08;;
61905;SDS011;47863;55.766;37.672;2023-04-25T12:41:50;4.63;;;1.95;;
61905;SDS011;47863;55.766;37.672;2023-04-25T12:44:19;2.92;;;1.80;;
61905;SDS011;47863;55.766;37.672;2023-04-25T12:46:46;5.78;;;2.10;;
61905;SDS011;47863;55.766;37.672;2023-04-25T12:49:12;5.93;;;2.75;;
61905;SDS011;47863;55.766;37.672;2023-04-25T12:51:38;3.40;;;2.05;;
61905;SDS011;47863;55.766;37.672;2023-04-25T12:54:05;5.45;;;2.13;;
61905;SDS011;47863;55.766;37.672;2023-04-25T12:56:32;4.28;;;2.35;;
61905;SDS011;47863;55.766;37.672;2023-04-25T12:58:58;6.53;;;2.13;;
61905;SDS011;47863;55.766;37.672;2023-04-25T13:01:25;3.67;;;2.03;;
61905;SDS011;47863;55.766;37.672;2023-04-25T13:03:51;4.13;;;2.00;;
61905;SDS011;47863;55.766;37.672;2023-04-25T13:06:18;4.03;;;2.10;;
61905;SDS011;47863;55.766;37.672;2023-04-25T13:08:45;6.60;;;2.35;;
61905;SDS011;47863;55.766;37.672;2023-04-25T13:11:10;3.53;;;2.10;;
61905;SDS011;47863;55.766;37.672;2023-04-25T13:13:37;3.75;;;2.03;;
61905;SDS011;47863;55.766;37.672;2023-04-25T13:16:05;4.82;;;2.28;;
61905;SDS011;47863;55.766;37.672;2023-04-25T13:18:33;5.22;;;2.40;;
61905;SDS011;47863;55.766;37.672;2023-04-25T13:20:59;4.70;;;2.20;;
61905;SDS011;47863;55.766;37.672;2023-04-25T13:23:28;4.78;;;2.20;;
61905;SDS011;47863;55.766;37.672;2023-04-25T13:25:55;3.83;;;2.05;;
61905;SDS011;47863;55.766;37.672;2023-04-25T13:28:24;5.53;;;2.03;;
61905;SDS011;47863;55.766;37.672;2023-04-25T13:30:50;5.03;;;1.98;;
61905;SDS011;47863;55.766;37.672;2023-04-25T13:33:16;5.63;;;3.03;;
61905;SDS011;47863;55.766;37.672;2023-04-25T13:35:42;4.40;;;2.50;;
61905;SDS011;47863;55.766;37.672;2023-04-25T13:38:08;7.22;;;3.30;;
61905;SDS011;47863;55.766;37.672;2023-04-25T13:40:34;5.90;;;2.45;;
61905;SDS011;47863;55.766;37.672;2023-04-25T13:42:59;4.78;;;2.33;;
61905;SDS011;47863;55.766;37.672;2023-04-25T13:45:26;4.32;;;2.50;;
61905;SDS011;47863;55.766;37.672;2023-04-25T13:47:52;5.85;;;2.45;;
61905;SDS011;47863;55.766;37.672;2023-04-25T13:50:18;6.75;;;2.53;;
61905;SDS011;47863;55.766;37.672;2023-04-25T13:52:43;5.57;;;2.78;;
61905;SDS011;47863;55.766;37.672;2023-04-25T13:55:10;3.83;;;2.20;;
61905;SDS011;47863;55.766;37.672;2023-04-25T13:57:36;2.97;;;1.98;;
61905;SDS011;47863;55.766;37.672;2023-04-25T14:00:03;3.85;;;2.22;;
61905;SDS011;47863;55.766;37.672;2023-04-25T14:02:37;4.95;;;2.10;;
61905;SDS011;47863;55.766;37.672;2023-04-25T14:05:03;3.97;;;2.60;;
61905;SDS011;47863;55.766;37.672;2023-04-25T14:07:31;4.70;;;2.20;;
61905;SDS011;47863;55.766;37.672;2023-04-25T14:09:57;5.50;;;2.50;;
61905;SDS011;47863;55.766;37.672;2023-04-25T14:12:23;3.75;;;2.50;;
61905;SDS011;47863;55.766;37.672;2023-04-25T14:14:49;5.47;;;2.13;;
61905;SDS011;47863;55.766;37.672;2023-04-25T14:17:15;2.92;;;1.90;;
61905;SDS011;47863;55.766;37.672;2023-04-25T14:19:40;3.30;;;2.00;;
61905;SDS011;47863;55.766;37.672;2023-04-25T14:22:10;5.30;;;2.25;;
61905;SDS011;47863;55.766;37.672;2023-04-25T14:24:36;4.88;;;2.95;;
61905;SDS011;47863;55.766;37.672;2023-04-25T14:27:02;4.10;;;2.45;;
61905;SDS011;47863;55.766;37.672;2023-04-25T14:29:28;4.93;;;2.47;;
61905;SDS011;47863;55.766;37.672;2023-04-25T14:31:54;3.55;;;2.25;;
61905;SDS011;47863;55.766;37.672;2023-04-25T14:34:19;4.13;;;2.35;;
61905;SDS011;47863;55.766;37.672;2023-04-25T14:36:45;7.15;;;2.47;;
61905;SDS011;47863;55.766;37.672;2023-04-25T14:39:11;6.55;;;2.70;;
61905;SDS011;47863;55.766;37.672;2023-04-25T14:41:39;4.85;;;2.95;;
61905;SDS011;47863;55.766;37.672;2023-04-25T14:44:04;6.38;;;2.45;;
61905;SDS011;47863;55.766;37.672;2023-04-25T14:46:30;6.40;;;2.70;;